sensor_id;sensor_type;location;lat;lon;timestamp;temperature;humidity
1225;DHT22;602;48.000;7.840;2023-03-23T00:01:01;16.50;99.90
1225;DHT22;602;48.000;7.840;2023-03-23T00:03:28;16.60;99.90
1225;DHT22;602;48.000;7.840;2023-03-23T00:05:57;16.60;99.90
1225;DHT22;602;48.000;7.840;2023-03-23T00:08:30;16.60;99.90
1225;DHT22;602;48.000;7.840;2023-03-23T00:10:58;16.60;99.90
1225;DHT22;602;48.000;7.840;2023-03-23T00:13:27;16.60;99.90
1225;DHT22;602;48.000;7.840;2023-03-23T00:15:55;16.70;99.90
1225;DHT22;602;48.000;7.840;2023-03-23T00:18:23;16.80;99.90
1225;DHT22;602;48.000;7.840;2023-03-23T00:20:50;16.70;99.90
1225;DHT22;602;48.000;7.840;2023-03-23T00:23:19;16.70;99.90
1225;DHT22;602;48.000;7.840;2023-03-23T00:25:47;16.60;99.90
1225;DHT22;602;48.000;7.840;2023-03-23T00:28:16;16.60;99.90
1225;DHT22;602;48.000;7.840;2023-03-23T00:30:44;16.60;99.90
1225;DHT22;602;48.000;7.840;2023-03-23T00:33:11;16.40;99.90
1225;DHT22;602;48.000;7.840;2023-03-23T00:35:40;16.40;99.90
1225;DHT22;602;48.000;7.840;2023-03-23T00:38:10;16.40;99.90
1225;DHT22;602;48.000;7.840;2023-03-23T00:40:36;16.40;99.90
1225;DHT22;602;48.000;7.840;2023-03-23T00:43:03;16.40;99.90
1225;DHT22;602;48.000;7.840;2023-03-23T00:45:32;16.40;99.90
1225;DHT22;602;48.000;7.840;2023-03-23T00:48:00;16.50;99.90
1225;DHT22;602;48.000;7.840;2023-03-23T00:50:28;16.50;99.90
1225;DHT22;602;48.000;7.840;2023-03-23T00:52:55;16.60;99.90
1225;DHT22;602;48.000;7.840;2023-03-23T00:55:23;16.60;99.90
1225;DHT22;602;48.000;7.840;2023-03-23T00:57:49;16.60;99.90
1225;DHT22;602;48.000;7.840;2023-03-23T01:00:17;16.70;99.90
1225;DHT22;602;48.000;7.840;2023-03-23T01:02:46;16.70;99.90
1225;DHT22;602;48.000;7.840;2023-03-23T01:05:13;16.80;99.90
1225;DHT22;602;48.000;7.840;2023-03-23T01:07:41;16.80;99.90
1225;DHT22;602;48.000;7.840;2023-03-23T01:10:11;16.90;99.90
1225;DHT22;602;48.000;7.840;2023-03-23T01:12:43;16.80;99.90
1225;DHT22;602;48.000;7.840;2023-03-23T01:15:13;16.90;99.90
1225;DHT22;602;48.000;7.840;2023-03-23T01:17:41;17.00;99.90
1225;DHT22;602;48.000;7.840;2023-03-23T01:20:10;17.10;99.90
1225;DHT22;602;48.000;7.840;2023-03-23T01:22:38;17.20;99.90
1225;DHT22;602;48.000;7.840;2023-03-23T01:25:07;17.30;99.90
1225;DHT22;602;48.000;7.840;2023-03-23T01:27:34;17.30;99.90
1225;DHT22;602;48.000;7.840;2023-03-23T01:30:01;17.30;99.90
1225;DHT22;602;48.000;7.840;2023-03-23T01:32:28;17.30;99.90
1225;DHT22;602;48.000;7.840;2023-03-23T01:34:55;17.20;99.90
1225;DHT22;602;48.000;7.840;2023-03-23T01:37:24;17.30;99.90
1225;DHT22;602;48.000;7.840;2023-03-23T01:39:52;17.20;99.90
1225;DHT22;602;48.000;7.840;2023-03-23T01:42:22;17.20;99.90
1225;DHT22;602;48.000;7.840;2023-03-23T01:47:57;17.30;99.90
1225;DHT22;602;48.000;7.840;2023-03-23T01:50:27;17.30;99.90
1225;DHT22;602;48.000;7.840;2023-03-23T01:52:57;17.30;99.90
1225;DHT22;602;48.000;7.840;2023-03-23T01:55:39;17.40;99.90
1225;DHT22;602;48.000;7.840;2023-03-23T01:58:07;17.40;99.90
1225;DHT22;602;48.000;7.840;2023-03-23T02:00:35;17.40;99.90
1225;DHT22;602;48.000;7.840;2023-03-23T02:03:03;17.40;99.90
1225;DHT22;602;48.000;7.840;2023-03-23T02:05:32;17.40;99.90
1225;DHT22;602;48.000;7.840;2023-03-23T02:08:03;17.50;99.90
1225;DHT22;602;48.000;7.840;2023-03-23T02:10:32;17.50;99.90
1225;DHT22;602;48.000;7.840;2023-03-23T02:13:01;17.60;99.90
1225;DHT22;602;48.000;7.840;2023-03-23T02:15:36;17.60;99.90
1225;DHT22;602;48.000;7.840;2023-03-23T02:18:09;17.60;99.90
1225;DHT22;602;48.000;7.840;2023-03-23T02:20:58;17.70;99.90
1225;DHT22;602;48.000;7.840;2023-03-23T02:23:52;17.70;99.90
1225;DHT22;602;48.000;7.840;2023-03-23T02:26:35;17.60;99.90
1225;DHT22;602;48.000;7.840;2023-03-23T02:29:23;17.70;99.90
1225;DHT22;602;48.000;7.840;2023-03-23T02:32:12;17.70;99.90
1225;DHT22;602;48.000;7.840;2023-03-23T02:34:44;17.60;99.90
1225;DHT22;602;48.000;7.840;2023-03-23T02:37:16;17.70;99.90
1225;DHT22;602;48.000;7.840;2023-03-23T02:39:48;17.80;99.90
1225;DHT22;602;48.000;7.840;2023-03-23T02:42:21;17.80;99.90
1225;DHT22;602;48.000;7.840;2023-03-23T02:44:50;17.90;99.90
1225;DHT22;602;48.000;7.840;2023-03-23T02:47:21;17.90;99.90
1225;DHT22;602;48.000;7.840;2023-03-23T02:49:52;17.90;99.90
1225;DHT22;602;48.000;7.840;2023-03-23T02:52:23;17.80;99.90
1225;DHT22;602;48.000;7.840;2023-03-23T02:54:51;17.90;99.90
1225;DHT22;602;48.000;7.840;2023-03-23T02:57:20;17.90;99.90
1225;DHT22;602;48.000;7.840;2023-03-23T02:59:47;17.90;99.90
1225;DHT22;602;48.000;7.840;2023-03-23T03:02:16;18.00;99.90
1225;DHT22;602;48.000;7.840;2023-03-23T03:04:47;18.00;99.90
1225;DHT22;602;48.000;7.840;2023-03-23T03:07:31;18.10;99.90
1225;DHT22;602;48.000;7.840;2023-03-23T03:10:04;18.20;99.90
1225;DHT22;602;48.000;7.840;2023-03-23T03:12:38;18.20;99.90
1225;DHT22;602;48.000;7.840;2023-03-23T03:15:15;18.30;99.90
1225;DHT22;602;48.000;7.840;2023-03-23T03:17:48;18.30;99.90
1225;DHT22;602;48.000;7.840;2023-03-23T03:20:17;18.20;99.90
1225;DHT22;602;48.000;7.840;2023-03-23T03:22:46;18.30;99.90
1225;DHT22;602;48.000;7.840;2023-03-23T03:25:15;18.30;99.90
1225;DHT22;602;48.000;7.840;2023-03-23T03:27:44;18.30;99.90
1225;DHT22;602;48.000;7.840;2023-03-23T03:30:17;18.30;99.90
1225;DHT22;602;48.000;7.840;2023-03-23T03:32:47;18.30;99.90
1225;DHT22;602;48.000;7.840;2023-03-23T03:35:16;18.30;99.90
1225;DHT22;602;48.000;7.840;2023-03-23T03:37:45;18.20;99.90
1225;DHT22;602;48.000;7.840;2023-03-23T03:40:16;18.30;99.90
1225;DHT22;602;48.000;7.840;2023-03-23T03:42:44;18.30;99.90
1225;DHT22;602;48.000;7.840;2023-03-23T03:45:13;18.30;99.90
1225;DHT22;602;48.000;7.840;2023-03-23T03:47:40;18.40;99.90
1225;DHT22;602;48.000;7.840;2023-03-23T03:50:08;18.30;99.90
1225;DHT22;602;48.000;7.840;2023-03-23T03:52:36;18.30;99.90
1225;DHT22;602;48.000;7.840;2023-03-23T03:55:06;18.20;99.90
1225;DHT22;602;48.000;7.840;2023-03-23T03:57:33;18.30;99.90
1225;DHT22;602;48.000;7.840;2023-03-23T04:00:01;18.30;99.80
1225;DHT22;602;48.000;7.840;2023-03-23T04:02:38;18.40;99.60
1225;DHT22;602;48.000;7.840;2023-03-23T04:05:06;18.40;99.50
1225;DHT22;602;48.000;7.840;2023-03-23T04:07:34;18.40;99.60
1225;DHT22;602;48.000;7.840;2023-03-23T04:10:04;18.40;99.60
1225;DHT22;602;48.000;7.840;2023-03-23T04:12:32;18.40;99.50
1225;DHT22;602;48.000;7.840;2023-03-23T04:14:59;18.50;99.40
1225;DHT22;602;48.000;7.840;2023-03-23T04:17:26;18.50;99.30
1225;DHT22;602;48.000;7.840;2023-03-23T04:19:53;18.50;99.30
1225;DHT22;602;48.000;7.840;2023-03-23T04:22:22;18.50;99.30
1225;DHT22;602;48.000;7.840;2023-03-23T04:24:57;18.50;99.30
1225;DHT22;602;48.000;7.840;2023-03-23T04:27:27;18.50;99.40
1225;DHT22;602;48.000;7.840;2023-03-23T04:29:55;18.50;99.40
1225;DHT22;602;48.000;7.840;2023-03-23T04:32:24;18.40;99.50
1225;DHT22;602;48.000;7.840;2023-03-23T04:34:54;18.50;99.60
1225;DHT22;602;48.000;7.840;2023-03-23T04:37:21;18.40;99.70
1225;DHT22;602;48.000;7.840;2023-03-23T04:39:51;18.30;99.80
1225;DHT22;602;48.000;7.840;2023-03-23T04:42:27;18.40;99.90
1225;DHT22;602;48.000;7.840;2023-03-23T04:44:55;18.40;99.90
1225;DHT22;602;48.000;7.840;2023-03-23T04:47:21;18.50;99.90
1225;DHT22;602;48.000;7.840;2023-03-23T04:49:48;18.30;99.90
1225;DHT22;602;48.000;7.840;2023-03-23T04:52:16;18.20;99.90
1225;DHT22;602;48.000;7.840;2023-03-23T04:54:43;18.10;99.90
1225;DHT22;602;48.000;7.840;2023-03-23T04:57:10;18.20;99.90
1225;DHT22;602;48.000;7.840;2023-03-23T04:59:39;18.10;99.90
1225;DHT22;602;48.000;7.840;2023-03-23T05:02:06;18.10;99.90
1225;DHT22;602;48.000;7.840;2023-03-23T05:04:33;18.20;99.90
1225;DHT22;602;48.000;7.840;2023-03-23T05:07:00;18.20;99.90
1225;DHT22;602;48.000;7.840;2023-03-23T05:09:26;18.20;99.90
1225;DHT22;602;48.000;7.840;2023-03-23T05:11:53;18.20;99.90
1225;DHT22;602;48.000;7.840;2023-03-23T05:14:20;18.20;99.90
1225;DHT22;602;48.000;7.840;2023-03-23T05:16:49;18.10;99.90
1225;DHT22;602;48.000;7.840;2023-03-23T05:19:17;18.00;99.90
1225;DHT22;602;48.000;7.840;2023-03-23T05:21:44;18.00;99.90
1225;DHT22;602;48.000;7.840;2023-03-23T05:24:11;18.00;99.90
1225;DHT22;602;48.000;7.840;2023-03-23T05:26:38;18.00;99.90
1225;DHT22;602;48.000;7.840;2023-03-23T05:29:04;17.90;99.90
1225;DHT22;602;48.000;7.840;2023-03-23T05:31:31;17.90;99.90
1225;DHT22;602;48.000;7.840;2023-03-23T05:33:59;17.80;99.90
1225;DHT22;602;48.000;7.840;2023-03-23T05:36:26;17.80;99.90
1225;DHT22;602;48.000;7.840;2023-03-23T05:38:54;17.70;99.90
1225;DHT22;602;48.000;7.840;2023-03-23T05:41:22;17.70;99.90
1225;DHT22;602;48.000;7.840;2023-03-23T05:43:49;17.70;99.90
1225;DHT22;602;48.000;7.840;2023-03-23T05:46:16;17.70;99.90
1225;DHT22;602;48.000;7.840;2023-03-23T05:48:43;17.60;99.90
1225;DHT22;602;48.000;7.840;2023-03-23T05:51:11;17.60;99.90
1225;DHT22;602;48.000;7.840;2023-03-23T05:53:38;17.60;99.90
1225;DHT22;602;48.000;7.840;2023-03-23T05:56:06;17.60;99.90
1225;DHT22;602;48.000;7.840;2023-03-23T05:58:33;17.70;99.90
1225;DHT22;602;48.000;7.840;2023-03-23T06:01:00;17.70;99.90
1225;DHT22;602;48.000;7.840;2023-03-23T06:03:27;17.60;99.90
1225;DHT22;602;48.000;7.840;2023-03-23T06:05:54;17.60;99.90
1225;DHT22;602;48.000;7.840;2023-03-23T06:08:22;17.60;99.90
1225;DHT22;602;48.000;7.840;2023-03-23T06:10:49;17.60;99.90
1225;DHT22;602;48.000;7.840;2023-03-23T06:13:16;17.50;99.90
1225;DHT22;602;48.000;7.840;2023-03-23T06:15:43;17.50;99.90
1225;DHT22;602;48.000;7.840;2023-03-23T06:18:10;17.50;99.90
1225;DHT22;602;48.000;7.840;2023-03-23T06:20:38;17.50;99.90
1225;DHT22;602;48.000;7.840;2023-03-23T06:23:06;17.40;99.90
1225;DHT22;602;48.000;7.840;2023-03-23T06:25:35;17.30;99.90
1225;DHT22;602;48.000;7.840;2023-03-23T06:28:02;17.30;99.90
1225;DHT22;602;48.000;7.840;2023-03-23T06:30:30;17.30;99.90
1225;DHT22;602;48.000;7.840;2023-03-23T06:32:56;17.40;99.90
1225;DHT22;602;48.000;7.840;2023-03-23T06:35:23;17.40;99.90
1225;DHT22;602;48.000;7.840;2023-03-23T06:37:50;17.30;99.90
1225;DHT22;602;48.000;7.840;2023-03-23T06:40:19;17.30;99.90
1225;DHT22;602;48.000;7.840;2023-03-23T06:42:48;17.30;99.90
1225;DHT22;602;48.000;7.840;2023-03-23T06:45:15;17.30;99.90
1225;DHT22;602;48.000;7.840;2023-03-23T06:47:45;17.30;99.90
1225;DHT22;602;48.000;7.840;2023-03-23T06:50:14;17.40;99.90
1225;DHT22;602;48.000;7.840;2023-03-23T06:52:41;17.40;99.90
1225;DHT22;602;48.000;7.840;2023-03-23T06:55:11;17.40;99.90
1225;DHT22;602;48.000;7.840;2023-03-23T06:57:38;17.50;99.90
1225;DHT22;602;48.000;7.840;2023-03-23T07:00:08;17.40;99.90
1225;DHT22;602;48.000;7.840;2023-03-23T07:02:37;17.40;99.90
1225;DHT22;602;48.000;7.840;2023-03-23T07:05:05;17.30;99.90
1225;DHT22;602;48.000;7.840;2023-03-23T07:07:31;17.30;99.90
1225;DHT22;602;48.000;7.840;2023-03-23T07:09:58;17.30;99.90
1225;DHT22;602;48.000;7.840;2023-03-23T07:12:25;17.20;99.90
1225;DHT22;602;48.000;7.840;2023-03-23T07:14:52;17.20;99.90
1225;DHT22;602;48.000;7.840;2023-03-23T07:17:20;17.20;99.90
1225;DHT22;602;48.000;7.840;2023-03-23T07:19:47;17.30;99.90
1225;DHT22;602;48.000;7.840;2023-03-23T07:22:14;17.30;99.90
1225;DHT22;602;48.000;7.840;2023-03-23T07:24:41;17.20;99.90
1225;DHT22;602;48.000;7.840;2023-03-23T07:27:08;17.20;99.90
1225;DHT22;602;48.000;7.840;2023-03-23T07:29:36;17.30;99.90
1225;DHT22;602;48.000;7.840;2023-03-23T07:32:05;17.20;99.90
1225;DHT22;602;48.000;7.840;2023-03-23T07:34:33;17.20;99.90
1225;DHT22;602;48.000;7.840;2023-03-23T07:37:00;17.30;99.90
1225;DHT22;602;48.000;7.840;2023-03-23T07:39:27;17.30;99.90
1225;DHT22;602;48.000;7.840;2023-03-23T07:41:54;17.30;99.90
1225;DHT22;602;48.000;7.840;2023-03-23T07:44:22;17.20;99.90
1225;DHT22;602;48.000;7.840;2023-03-23T07:46:49;17.10;99.90
1225;DHT22;602;48.000;7.840;2023-03-23T07:49:16;16.90;99.90
1225;DHT22;602;48.000;7.840;2023-03-23T07:51:44;16.70;99.90
1225;DHT22;602;48.000;7.840;2023-03-23T07:54:12;16.70;99.90
1225;DHT22;602;48.000;7.840;2023-03-23T07:56:40;16.60;99.90
1225;DHT22;602;48.000;7.840;2023-03-23T07:59:07;16.50;99.90
1225;DHT22;602;48.000;7.840;2023-03-23T08:01:35;16.40;99.90
1225;DHT22;602;48.000;7.840;2023-03-23T08:04:02;16.30;99.90
1225;DHT22;602;48.000;7.840;2023-03-23T08:06:32;16.30;99.90
1225;DHT22;602;48.000;7.840;2023-03-23T08:09:02;16.20;99.90
1225;DHT22;602;48.000;7.840;2023-03-23T08:11:32;16.20;99.90
1225;DHT22;602;48.000;7.840;2023-03-23T08:13:59;16.20;99.90
1225;DHT22;602;48.000;7.840;2023-03-23T08:16:25;16.10;99.90
1225;DHT22;602;48.000;7.840;2023-03-23T08:18:53;16.10;99.90
1225;DHT22;602;48.000;7.840;2023-03-23T08:21:19;16.00;99.90
1225;DHT22;602;48.000;7.840;2023-03-23T08:23:47;16.00;99.90
1225;DHT22;602;48.000;7.840;2023-03-23T08:26:16;16.00;99.90
1225;DHT22;602;48.000;7.840;2023-03-23T08:28:43;16.00;99.90
1225;DHT22;602;48.000;7.840;2023-03-23T08:31:11;16.00;99.90
1225;DHT22;602;48.000;7.840;2023-03-23T08:33:39;16.00;99.90
1225;DHT22;602;48.000;7.840;2023-03-23T08:36:08;16.00;99.90
1225;DHT22;602;48.000;7.840;2023-03-23T08:38:35;16.10;99.90
1225;DHT22;602;48.000;7.840;2023-03-23T08:41:04;16.00;99.90
1225;DHT22;602;48.000;7.840;2023-03-23T08:43:35;16.00;99.90
1225;DHT22;602;48.000;7.840;2023-03-23T08:46:03;16.10;99.90
1225;DHT22;602;48.000;7.840;2023-03-23T08:48:34;16.10;99.90
1225;DHT22;602;48.000;7.840;2023-03-23T08:51:02;16.10;99.90
1225;DHT22;602;48.000;7.840;2023-03-23T08:53:29;16.10;99.90
1225;DHT22;602;48.000;7.840;2023-03-23T08:56:02;16.10;99.90
1225;DHT22;602;48.000;7.840;2023-03-23T08:58:29;16.20;99.90
1225;DHT22;602;48.000;7.840;2023-03-23T09:00:57;16.20;99.90
1225;DHT22;602;48.000;7.840;2023-03-23T09:03:24;16.30;99.90
1225;DHT22;602;48.000;7.840;2023-03-23T09:05:51;16.10;99.90
1225;DHT22;602;48.000;7.840;2023-03-23T09:08:19;16.10;99.90
1225;DHT22;602;48.000;7.840;2023-03-23T09:10:46;16.20;99.90
1225;DHT22;602;48.000;7.840;2023-03-23T09:13:15;16.20;99.90
1225;DHT22;602;48.000;7.840;2023-03-23T09:15:42;16.30;99.90
1225;DHT22;602;48.000;7.840;2023-03-23T09:18:10;16.30;99.90
1225;DHT22;602;48.000;7.840;2023-03-23T09:20:38;16.10;99.90
1225;DHT22;602;48.000;7.840;2023-03-23T09:23:05;16.10;99.90
1225;DHT22;602;48.000;7.840;2023-03-23T09:25:32;16.10;99.90
1225;DHT22;602;48.000;7.840;2023-03-23T09:27:59;16.10;99.90
1225;DHT22;602;48.000;7.840;2023-03-23T09:30:28;16.20;99.90
1225;DHT22;602;48.000;7.840;2023-03-23T09:32:56;16.30;99.90
1225;DHT22;602;48.000;7.840;2023-03-23T09:35:28;16.30;99.90
1225;DHT22;602;48.000;7.840;2023-03-23T09:37:56;16.30;99.90
1225;DHT22;602;48.000;7.840;2023-03-23T09:40:28;16.40;99.90
1225;DHT22;602;48.000;7.840;2023-03-23T09:43:10;16.50;99.90
1225;DHT22;602;48.000;7.840;2023-03-23T09:45:46;16.60;99.90
1225;DHT22;602;48.000;7.840;2023-03-23T09:48:27;16.50;99.90
1225;DHT22;602;48.000;7.840;2023-03-23T09:51:02;16.60;99.90
1225;DHT22;602;48.000;7.840;2023-03-23T09:53:34;16.70;99.90
1225;DHT22;602;48.000;7.840;2023-03-23T09:56:09;16.80;99.90
1225;DHT22;602;48.000;7.840;2023-03-23T09:58:43;16.90;99.90
1225;DHT22;602;48.000;7.840;2023-03-23T10:01:17;16.90;99.90
1225;DHT22;602;48.000;7.840;2023-03-23T10:03:46;17.00;99.90
1225;DHT22;602;48.000;7.840;2023-03-23T10:06:17;17.10;99.90
1225;DHT22;602;48.000;7.840;2023-03-23T10:08:46;17.10;99.90
1225;DHT22;602;48.000;7.840;2023-03-23T10:11:19;17.20;99.90
1225;DHT22;602;48.000;7.840;2023-03-23T10:14:04;17.30;99.90
1225;DHT22;602;48.000;7.840;2023-03-23T10:16:36;17.30;99.90
1225;DHT22;602;48.000;7.840;2023-03-23T10:19:10;17.30;99.90
1225;DHT22;602;48.000;7.840;2023-03-23T10:21:41;17.30;99.90
1225;DHT22;602;48.000;7.840;2023-03-23T10:24:10;17.40;99.90
1225;DHT22;602;48.000;7.840;2023-03-23T10:26:47;17.50;99.90
1225;DHT22;602;48.000;7.840;2023-03-23T10:29:19;17.60;99.90
1225;DHT22;602;48.000;7.840;2023-03-23T10:31:49;17.80;99.90
1225;DHT22;602;48.000;7.840;2023-03-23T10:34:22;17.80;99.90
1225;DHT22;602;48.000;7.840;2023-03-23T10:37:01;17.90;99.90
1225;DHT22;602;48.000;7.840;2023-03-23T10:39:32;18.10;99.90
1225;DHT22;602;48.000;7.840;2023-03-23T10:42:04;18.20;99.90
1225;DHT22;602;48.000;7.840;2023-03-23T10:44:33;18.20;99.90
1225;DHT22;602;48.000;7.840;2023-03-23T10:47:02;18.30;99.90
1225;DHT22;602;48.000;7.840;2023-03-23T10:49:34;18.40;99.90
1225;DHT22;602;48.000;7.840;2023-03-23T10:52:07;18.50;99.90
1225;DHT22;602;48.000;7.840;2023-03-23T10:54:39;18.50;99.90
1225;DHT22;602;48.000;7.840;2023-03-23T10:57:17;18.60;99.90
1225;DHT22;602;48.000;7.840;2023-03-23T10:59:46;18.60;99.90
1225;DHT22;602;48.000;7.840;2023-03-23T11:02:16;18.60;99.90
1225;DHT22;602;48.000;7.840;2023-03-23T11:04:55;18.70;99.90
1225;DHT22;602;48.000;7.840;2023-03-23T11:07:28;18.70;99.90
1225;DHT22;602;48.000;7.840;2023-03-23T11:09:56;18.80;99.90
1225;DHT22;602;48.000;7.840;2023-03-23T11:12:24;18.80;99.90
1225;DHT22;602;48.000;7.840;2023-03-23T11:14:51;18.90;99.90
1225;DHT22;602;48.000;7.840;2023-03-23T11:17:23;19.00;99.90
1225;DHT22;602;48.000;7.840;2023-03-23T11:19:52;19.10;99.90
1225;DHT22;602;48.000;7.840;2023-03-23T11:22:25;19.00;99.90
1225;DHT22;602;48.000;7.840;2023-03-23T11:24:54;19.10;99.90
1225;DHT22;602;48.000;7.840;2023-03-23T11:27:21;19.20;99.90
1225;DHT22;602;48.000;7.840;2023-03-23T11:29:51;19.30;99.90
1225;DHT22;602;48.000;7.840;2023-03-23T11:32:23;19.30;99.90
1225;DHT22;602;48.000;7.840;2023-03-23T11:34:54;19.30;99.90
1225;DHT22;602;48.000;7.840;2023-03-23T11:37:29;19.30;99.90
1225;DHT22;602;48.000;7.840;2023-03-23T11:40:00;19.40;99.90
1225;DHT22;602;48.000;7.840;2023-03-23T11:42:36;19.40;99.90
1225;DHT22;602;48.000;7.840;2023-03-23T11:45:15;19.40;99.90
1225;DHT22;602;48.000;7.840;2023-03-23T11:47:50;19.50;99.90
1225;DHT22;602;48.000;7.840;2023-03-23T11:50:24;19.40;99.90
1225;DHT22;602;48.000;7.840;2023-03-23T11:52:58;19.50;99.90
1225;DHT22;602;48.000;7.840;2023-03-23T11:55:33;19.70;99.90
1225;DHT22;602;48.000;7.840;2023-03-23T11:58:09;19.70;99.90
1225;DHT22;602;48.000;7.840;2023-03-23T12:00:40;19.70;99.90
1225;DHT22;602;48.000;7.840;2023-03-23T12:03:26;19.70;99.90
1225;DHT22;602;48.000;7.840;2023-03-23T12:06:02;19.80;99.90
1225;DHT22;602;48.000;7.840;2023-03-23T12:08:47;19.80;99.90
1225;DHT22;602;48.000;7.840;2023-03-23T12:11:20;19.90;99.90
1225;DHT22;602;48.000;7.840;2023-03-23T12:13:58;19.90;99.90
1225;DHT22;602;48.000;7.840;2023-03-23T12:16:37;20.00;99.90
1225;DHT22;602;48.000;7.840;2023-03-23T12:19:13;20.00;99.90
1225;DHT22;602;48.000;7.840;2023-03-23T12:21:52;20.10;99.90
1225;DHT22;602;48.000;7.840;2023-03-23T12:24:30;20.00;99.90
1225;DHT22;602;48.000;7.840;2023-03-23T12:27:05;19.90;99.90
1225;DHT22;602;48.000;7.840;2023-03-23T12:29:48;19.90;99.90
1225;DHT22;602;48.000;7.840;2023-03-23T12:32:30;19.90;99.90
1225;DHT22;602;48.000;7.840;2023-03-23T12:35:11;19.80;99.90
1225;DHT22;602;48.000;7.840;2023-03-23T12:37:50;19.90;99.90
1225;DHT22;602;48.000;7.840;2023-03-23T12:43:28;19.80;99.90
1225;DHT22;602;48.000;7.840;2023-03-23T12:46:09;19.70;99.90
1225;DHT22;602;48.000;7.840;2023-03-23T12:48:41;19.60;99.90
1225;DHT22;602;48.000;7.840;2023-03-23T12:51:17;19.50;99.90
1225;DHT22;602;48.000;7.840;2023-03-23T12:53:52;19.50;99.90
1225;DHT22;602;48.000;7.840;2023-03-23T12:56:25;19.50;99.90
1225;DHT22;602;48.000;7.840;2023-03-23T12:59:01;19.60;99.90
1225;DHT22;602;48.000;7.840;2023-03-23T13:01:33;19.60;99.90
1225;DHT22;602;48.000;7.840;2023-03-23T13:04:04;19.50;99.90
1225;DHT22;602;48.000;7.840;2023-03-23T13:06:36;19.50;99.90
1225;DHT22;602;48.000;7.840;2023-03-23T13:09:07;19.40;99.90
1225;DHT22;602;48.000;7.840;2023-03-23T13:11:38;19.40;99.90
1225;DHT22;602;48.000;7.840;2023-03-23T13:14:16;19.40;99.90
1225;DHT22;602;48.000;7.840;2023-03-23T13:16:51;19.40;99.90
1225;DHT22;602;48.000;7.840;2023-03-23T13:19:25;19.50;99.90
1225;DHT22;602;48.000;7.840;2023-03-23T13:21:59;19.50;99.90
1225;DHT22;602;48.000;7.840;2023-03-23T13:24:30;19.50;99.90
1225;DHT22;602;48.000;7.840;2023-03-23T13:26:59;19.50;99.90
1225;DHT22;602;48.000;7.840;2023-03-23T13:29:28;19.50;99.90
1225;DHT22;602;48.000;7.840;2023-03-23T13:32:06;19.50;99.90
1225;DHT22;602;48.000;7.840;2023-03-23T13:34:35;19.70;99.90
1225;DHT22;602;48.000;7.840;2023-03-23T13:37:04;19.70;99.90
1225;DHT22;602;48.000;7.840;2023-03-23T13:39:34;19.60;99.90
1225;DHT22;602;48.000;7.840;2023-03-23T13:42:16;19.60;99.90
1225;DHT22;602;48.000;7.840;2023-03-23T13:45:19;19.50;99.90
1225;DHT22;602;48.000;7.840;2023-03-23T13:47:47;19.40;99.90
1225;DHT22;602;48.000;7.840;2023-03-23T13:50:26;19.40;99.90
1225;DHT22;602;48.000;7.840;2023-03-23T13:52:58;19.40;99.90
1225;DHT22;602;48.000;7.840;2023-03-23T13:55:40;19.40;99.90
1225;DHT22;602;48.000;7.840;2023-03-23T13:58:20;19.30;99.90
1225;DHT22;602;48.000;7.840;2023-03-23T14:01:00;19.30;99.90
1225;DHT22;602;48.000;7.840;2023-03-23T14:03:35;19.30;99.90
1225;DHT22;602;48.000;7.840;2023-03-23T14:06:04;19.20;99.90
1225;DHT22;602;48.000;7.840;2023-03-23T14:08:41;19.20;99.90
1225;DHT22;602;48.000;7.840;2023-03-23T14:11:14;19.20;99.90
1225;DHT22;602;48.000;7.840;2023-03-23T14:13:46;19.20;99.90
1225;DHT22;602;48.000;7.840;2023-03-23T14:16:17;19.20;99.90
1225;DHT22;602;48.000;7.840;2023-03-23T14:18:53;19.20;99.90
1225;DHT22;602;48.000;7.840;2023-03-23T14:21:33;19.40;99.90
1225;DHT22;602;48.000;7.840;2023-03-23T14:24:05;19.30;99.90
1225;DHT22;602;48.000;7.840;2023-03-23T14:26:34;19.20;99.90
1225;DHT22;602;48.000;7.840;2023-03-23T14:29:04;19.20;99.90
1225;DHT22;602;48.000;7.840;2023-03-23T14:31:35;19.10;99.90
1225;DHT22;602;48.000;7.840;2023-03-23T14:34:04;19.10;99.90
1225;DHT22;602;48.000;7.840;2023-03-23T14:36:34;19.00;99.90
1225;DHT22;602;48.000;7.840;2023-03-23T14:39:06;19.00;99.90
1225;DHT22;602;48.000;7.840;2023-03-23T14:41:35;18.90;99.90
1225;DHT22;602;48.000;7.840;2023-03-23T14:44:05;18.90;99.90
1225;DHT22;602;48.000;7.840;2023-03-23T14:46:34;19.00;99.90
1225;DHT22;602;48.000;7.840;2023-03-23T14:49:03;19.00;99.90
1225;DHT22;602;48.000;7.840;2023-03-23T14:51:31;19.00;99.90
1225;DHT22;602;48.000;7.840;2023-03-23T14:53:59;19.00;99.90
1225;DHT22;602;48.000;7.840;2023-03-23T14:56:33;19.10;99.90
1225;DHT22;602;48.000;7.840;2023-03-23T14:59:04;19.10;99.90
1225;DHT22;602;48.000;7.840;2023-03-23T15:01:34;19.10;99.90
1225;DHT22;602;48.000;7.840;2023-03-23T15:04:06;19.10;99.90
1225;DHT22;602;48.000;7.840;2023-03-23T15:06:35;19.20;99.90
1225;DHT22;602;48.000;7.840;2023-03-23T15:09:06;19.20;99.90
1225;DHT22;602;48.000;7.840;2023-03-23T15:11:36;19.20;99.90
1225;DHT22;602;48.000;7.840;2023-03-23T15:14:10;19.20;99.90
1225;DHT22;602;48.000;7.840;2023-03-23T15:16:38;19.20;99.90
1225;DHT22;602;48.000;7.840;2023-03-23T15:19:15;19.30;99.90
1225;DHT22;602;48.000;7.840;2023-03-23T15:21:52;19.30;99.90
1225;DHT22;602;48.000;7.840;2023-03-23T15:24:26;19.20;99.90
1225;DHT22;602;48.000;7.840;2023-03-23T15:26:54;19.30;99.90
1225;DHT22;602;48.000;7.840;2023-03-23T15:29:29;19.30;99.90
1225;DHT22;602;48.000;7.840;2023-03-23T15:31:57;19.40;99.90
1225;DHT22;602;48.000;7.840;2023-03-23T15:34:29;19.40;99.90
1225;DHT22;602;48.000;7.840;2023-03-23T15:36:59;19.50;99.90
1225;DHT22;602;48.000;7.840;2023-03-23T15:39:27;19.40;99.90
1225;DHT22;602;48.000;7.840;2023-03-23T15:41:54;19.50;99.90
1225;DHT22;602;48.000;7.840;2023-03-23T15:44:26;19.50;99.90
1225;DHT22;602;48.000;7.840;2023-03-23T15:47:03;19.60;99.90
1225;DHT22;602;48.000;7.840;2023-03-23T15:49:31;19.60;99.90
1225;DHT22;602;48.000;7.840;2023-03-23T15:51:58;19.60;99.90
1225;DHT22;602;48.000;7.840;2023-03-23T15:54:30;19.50;99.90
1225;DHT22;602;48.000;7.840;2023-03-23T15:56:57;19.50;99.90
1225;DHT22;602;48.000;7.840;2023-03-23T15:59:24;19.50;99.90
1225;DHT22;602;48.000;7.840;2023-03-23T16:01:51;19.50;99.90
1225;DHT22;602;48.000;7.840;2023-03-23T16:04:20;19.40;99.90
1225;DHT22;602;48.000;7.840;2023-03-23T16:06:47;19.40;99.90
1225;DHT22;602;48.000;7.840;2023-03-23T16:09:17;19.40;99.90
1225;DHT22;602;48.000;7.840;2023-03-23T16:11:44;19.40;99.90
1225;DHT22;602;48.000;7.840;2023-03-23T16:14:11;19.40;99.90
1225;DHT22;602;48.000;7.840;2023-03-23T16:16:40;19.30;99.90
1225;DHT22;602;48.000;7.840;2023-03-23T16:19:08;19.30;99.90
1225;DHT22;602;48.000;7.840;2023-03-23T16:21:38;19.20;99.90
1225;DHT22;602;48.000;7.840;2023-03-23T16:24:06;19.20;99.90
1225;DHT22;602;48.000;7.840;2023-03-23T16:26:33;19.20;99.90
1225;DHT22;602;48.000;7.840;2023-03-23T16:29:00;19.20;99.90
1225;DHT22;602;48.000;7.840;2023-03-23T16:31:27;19.20;99.90
1225;DHT22;602;48.000;7.840;2023-03-23T16:33:54;19.10;99.90
1225;DHT22;602;48.000;7.840;2023-03-23T16:36:21;19.20;99.90
1225;DHT22;602;48.000;7.840;2023-03-23T16:38:49;19.10;99.90
1225;DHT22;602;48.000;7.840;2023-03-23T16:41:16;19.00;99.90
1225;DHT22;602;48.000;7.840;2023-03-23T16:43:43;19.10;99.90